createdAt,value
2016-04-22T00:00:08.566Z,1014.96
2016-04-22T00:01:08.585Z,1014.98
2016-04-22T00:02:08.588Z,1014.99
2016-04-22T00:03:08.591Z,1014.93
2016-04-22T00:04:08.603Z,1014.95
2016-04-22T00:05:08.605Z,1014.93
2016-04-22T00:06:08.608Z,1014.92
2016-04-22T00:07:08.611Z,1014.9
2016-04-22T00:08:08.629Z,1014.92
2016-04-22T00:09:08.631Z,1014.98
2016-04-22T00:10:08.634Z,1014.91
2016-04-22T00:11:08.637Z,1014.96
2016-04-22T00:12:08.639Z,1014.92
2016-04-22T00:13:08.642Z,1014.93
2016-04-22T00:14:08.645Z,1014.97
2016-04-22T00:15:08.664Z,1014.87
2016-04-22T00:16:08.666Z,1014.85
2016-04-22T00:17:08.669Z,1014.86
2016-04-22T00:18:08.671Z,1014.86
2016-04-22T00:19:08.691Z,1014.88
2016-04-22T00:20:08.693Z,1014.87
2016-04-22T00:21:08.696Z,1014.82
2016-04-22T00:22:08.698Z,1014.85
2016-04-22T00:23:08.701Z,1014.95
2016-04-22T00:24:08.704Z,1014.92
2016-04-22T00:25:08.722Z,1014.94
2016-04-22T00:26:08.724Z,1014.96
2016-04-22T00:27:08.727Z,1014.95
2016-04-22T00:28:08.730Z,1014.94
2016-04-22T00:29:08.732Z,1015.01
2016-04-22T00:30:08.751Z,1014.94
2016-04-22T00:31:08.754Z,1014.94
2016-04-22T00:32:08.757Z,1014.9
2016-04-22T00:33:08.759Z,1014.92
2016-04-22T00:34:08.762Z,1014.91
2016-04-22T00:35:08.779Z,1014.91
2016-04-22T00:36:08.783Z,1014.91
2016-04-22T00:37:08.786Z,1014.91
2016-04-22T00:38:08.805Z,1014.87
2016-04-22T00:39:08.792Z,1014.84
2016-04-22T00:40:08.794Z,1014.78
2016-04-22T00:41:08.813Z,1014.78
2016-04-22T00:42:08.816Z,1014.83
2016-04-22T00:43:08.818Z,1014.79
2016-04-22T00:44:08.820Z,1014.82
2016-04-22T00:45:08.824Z,1014.8
2016-04-22T00:46:08.826Z,1014.82
2016-04-22T00:47:08.845Z,1014.82
2016-04-22T00:48:08.847Z,1014.8
2016-04-22T00:49:08.850Z,1014.83
2016-04-22T00:50:08.852Z,1014.83
2016-04-22T00:51:08.856Z,1014.87
2016-04-22T00:52:08.873Z,1014.86
2016-04-22T00:53:08.876Z,1014.84
2016-04-22T00:54:08.879Z,1014.86
2016-04-22T00:55:08.882Z,1014.85
2016-04-22T00:56:08.900Z,1014.85
2016-04-22T00:57:08.902Z,1014.83
2016-04-22T00:58:08.905Z,1014.85
2016-04-22T00:59:08.908Z,1014.87
2016-04-22T01:00:08.911Z,1014.86
2016-04-22T01:01:09.257Z,1014.85
2016-04-22T01:02:08.931Z,1014.86
2016-04-22T01:03:08.933Z,1014.86
2016-04-22T01:04:08.936Z,1014.93
2016-04-22T01:05:08.939Z,1014.86
2016-04-22T01:06:08.942Z,1014.91
2016-04-22T01:07:08.960Z,1014.85
2016-04-22T01:08:08.963Z,1014.87
2016-04-22T01:09:08.966Z,1014.82
2016-04-22T01:10:08.968Z,1014.81
2016-04-22T01:11:08.987Z,1014.85
2016-04-22T01:12:08.990Z,1014.84
2016-04-22T01:13:08.993Z,1014.82
2016-04-22T01:14:08.995Z,1014.88
2016-04-22T01:15:08.998Z,1014.85
2016-04-22T01:16:09.001Z,1014.87
2016-04-22T01:17:09.018Z,1014.9
2016-04-22T01:18:09.021Z,1014.84
2016-04-22T01:19:09.024Z,1014.85
2016-04-22T01:20:09.026Z,1014.86
2016-04-22T01:21:09.029Z,1014.87
2016-04-22T01:22:09.048Z,1014.86
2016-04-22T01:23:09.051Z,1014.8
2016-04-22T01:24:09.069Z,1014.78
2016-04-22T01:25:09.056Z,1014.82
2016-04-22T01:26:09.059Z,1014.78
2016-04-22T01:27:09.061Z,1014.81
2016-04-22T01:28:09.080Z,1014.8
2016-04-22T01:29:09.083Z,1014.82
2016-04-22T01:30:09.085Z,1014.79
2016-04-22T01:31:09.088Z,1014.82
2016-04-22T01:32:09.091Z,1014.82
2016-04-22T01:33:09.108Z,1014.83
2016-04-22T01:34:09.111Z,1014.8
2016-04-22T01:35:09.114Z,1014.77
2016-04-22T01:36:09.117Z,1014.78
2016-04-22T01:37:09.119Z,1014.7
2016-04-22T01:38:09.122Z,1014.7
2016-04-22T01:39:09.141Z,1014.67
2016-04-22T01:40:09.143Z,1014.67
2016-04-22T01:41:09.146Z,1014.67
2016-04-22T01:42:09.149Z,1014.67
2016-04-22T01:43:09.167Z,1014.69
2016-04-22T01:44:09.169Z,1014.71
2016-04-22T01:45:09.172Z,1014.72
2016-04-22T01:46:09.174Z,1014.71
2016-04-22T01:47:09.177Z,1014.71
2016-04-22T01:48:09.180Z,1014.73
2016-04-22T01:49:09.199Z,1014.71
2016-04-22T01:50:09.201Z,1014.64
2016-04-22T01:51:09.204Z,1014.63
2016-04-22T01:52:09.223Z,1014.65
2016-04-22T01:53:09.209Z,1014.64
2016-04-22T01:54:09.228Z,1014.66
2016-04-22T01:55:09.231Z,1014.68
2016-04-22T01:56:09.234Z,1014.7
2016-04-22T01:57:09.236Z,1014.67
2016-04-22T01:58:09.239Z,1014.71
2016-04-22T01:59:09.256Z,1014.66
2016-04-22T02:00:09.259Z,1014.66
2016-04-22T02:01:09.262Z,1014.63
2016-04-22T02:02:09.265Z,1014.65
2016-04-22T02:03:09.267Z,1014.56
2016-04-22T02:04:09.286Z,1014.62
2016-04-22T02:05:09.289Z,1014.56
2016-04-22T02:06:09.307Z,1014.61
2016-04-22T02:07:09.294Z,1014.66
2016-04-22T02:08:09.297Z,1014.58
2016-04-22T02:09:09.316Z,1014.58
2016-04-22T02:10:09.318Z,1014.62
2016-04-22T02:11:09.321Z,1014.54
2016-04-22T02:12:09.324Z,1014.56
2016-04-22T02:13:09.341Z,1014.6
2016-04-22T02:14:09.344Z,1014.63
2016-04-22T02:15:09.347Z,1014.63
2016-04-22T02:16:09.349Z,1014.6
2016-04-22T02:17:09.352Z,1014.61
2016-04-22T02:18:09.355Z,1014.66
2016-04-22T02:19:09.357Z,1014.61
2016-04-22T02:20:09.376Z,1014.66
2016-04-22T02:21:09.379Z,1014.64
2016-04-22T02:22:09.382Z,1014.63
2016-04-22T02:23:09.384Z,1014.64
2016-04-22T02:24:09.387Z,1014.61
2016-04-22T02:25:09.404Z,1014.6
2016-04-22T02:26:09.407Z,1014.61
2016-04-22T02:27:09.410Z,1014.62
2016-04-22T02:28:09.413Z,1014.64
2016-04-22T02:29:09.415Z,1014.63
2016-04-22T02:30:09.434Z,1014.6
2016-04-22T02:31:09.437Z,1014.52
2016-04-22T02:32:09.439Z,1014.53
2016-04-22T02:33:09.442Z,1014.58
2016-04-22T02:34:09.444Z,1014.57
2016-04-22T02:35:09.463Z,1014.54
2016-04-22T02:36:09.466Z,1014.58
2016-04-22T02:37:09.469Z,1014.6
2016-04-22T02:38:09.471Z,1014.65
2016-04-22T02:39:09.474Z,1014.62
2016-04-22T02:40:09.492Z,1014.65
2016-04-22T02:41:09.494Z,1014.66
2016-04-22T02:42:09.497Z,1014.63
2016-04-22T02:43:09.500Z,1014.67
2016-04-22T02:44:09.503Z,1014.58
2016-04-22T02:45:09.505Z,1014.57
2016-04-22T02:46:09.524Z,1014.55
2016-04-22T02:47:09.526Z,1014.55
2016-04-22T02:48:09.529Z,1014.56
2016-04-22T02:49:09.532Z,1014.58
2016-04-22T02:50:09.534Z,1014.55
2016-04-22T02:51:09.553Z,1014.5
2016-04-22T02:52:09.556Z,1014.49
2016-04-22T02:53:09.559Z,1014.52
2016-04-22T02:54:09.561Z,1014.56
2016-04-22T02:55:09.564Z,1014.5
2016-04-22T02:56:09.581Z,1014.55
2016-04-22T02:57:09.585Z,1014.59
2016-04-22T02:58:09.588Z,1014.63
2016-04-22T02:59:09.589Z,1014.6
2016-04-22T03:00:09.593Z,1014.58
2016-04-22T03:01:09.986Z,1014.63
2016-04-22T03:02:09.614Z,1014.61
2016-04-22T03:03:09.617Z,1014.63
2016-04-22T03:04:09.619Z,1014.62
2016-04-22T03:05:09.622Z,1014.62
2016-04-22T03:06:09.639Z,1014.59
2016-04-22T03:07:09.642Z,1014.61
2016-04-22T03:08:09.645Z,1014.61
2016-04-22T03:09:09.647Z,1014.64
2016-04-22T03:10:09.650Z,1014.64
2016-04-22T03:11:09.669Z,1014.62
2016-04-22T03:12:09.672Z,1014.61
2016-04-22T03:13:09.675Z,1014.59
2016-04-22T03:14:09.693Z,1014.59
2016-04-22T03:15:09.680Z,1014.6
2016-04-22T03:16:09.699Z,1014.56
2016-04-22T03:17:09.701Z,1014.55
2016-04-22T03:18:09.704Z,1014.56
2016-04-22T03:19:09.707Z,1014.57
2016-04-22T03:20:09.740Z,1014.56
2016-04-22T03:21:09.727Z,1014.56
2016-04-22T03:22:09.730Z,1014.56
2016-04-22T03:23:09.732Z,1014.55
2016-04-22T03:24:09.751Z,1014.57
2016-04-22T03:25:09.738Z,1014.55
2016-04-22T03:26:09.757Z,1014.58
2016-04-22T03:27:09.760Z,1014.58
2016-04-22T03:28:09.762Z,1014.59
2016-04-22T03:29:09.765Z,1014.57
2016-04-22T03:30:09.767Z,1014.6
2016-04-22T03:31:09.786Z,1014.6
2016-04-22T03:32:09.789Z,1014.6
2016-04-22T03:33:09.791Z,1014.6
2016-04-22T03:34:09.794Z,1014.55
2016-04-22T03:35:09.796Z,1014.56
2016-04-22T03:36:09.814Z,1014.56
2016-04-22T03:37:09.817Z,1014.52
2016-04-22T03:38:09.819Z,1014.51
2016-04-22T03:39:09.823Z,1014.51
2016-04-22T03:40:09.825Z,1014.51
2016-04-22T03:41:09.844Z,1014.49
2016-04-22T03:42:09.847Z,1014.46
2016-04-22T03:43:09.849Z,1014.46
2016-04-22T03:44:09.852Z,1014.47
2016-04-22T03:45:09.855Z,1014.47
2016-04-22T03:46:09.857Z,1014.49
2016-04-22T03:47:09.875Z,1014.51
2016-04-22T03:48:09.878Z,1014.56
2016-04-22T03:49:09.880Z,1014.54
2016-04-22T03:50:09.883Z,1014.58
2016-04-22T03:51:09.885Z,1014.59
2016-04-22T03:52:09.904Z,1014.61
2016-04-22T03:53:09.907Z,1014.63
2016-04-22T03:54:09.910Z,1014.61
2016-04-22T03:55:09.913Z,1014.67
2016-04-22T03:56:09.916Z,1014.67
2016-04-22T03:57:09.934Z,1014.63
2016-04-22T03:58:09.937Z,1014.68
2016-04-22T03:59:09.939Z,1014.66
2016-04-22T04:00:09.942Z,1014.67
2016-04-22T04:01:09.945Z,1014.67
2016-04-22T04:02:09.962Z,1014.64
2016-04-22T04:03:09.965Z,1014.57
2016-04-22T04:04:09.967Z,1014.57
2016-04-22T04:05:09.970Z,1014.55
2016-04-22T04:06:09.973Z,1014.58
2016-04-22T04:07:09.991Z,1014.55
2016-04-22T04:08:09.995Z,1014.58
2016-04-22T04:09:09.997Z,1014.57
2016-04-22T04:10:10.000Z,1014.53
2016-04-22T04:11:10.019Z,1014.5
2016-04-22T04:12:10.021Z,1014.53
2016-04-22T04:13:10.024Z,1014.48
2016-04-22T04:14:10.026Z,1014.5
2016-04-22T04:15:10.029Z,1014.5
2016-04-22T04:16:10.047Z,1014.51
2016-04-22T04:17:10.049Z,1014.53
2016-04-22T04:18:10.052Z,1014.47
2016-04-22T04:19:10.071Z,1014.5
2016-04-22T04:20:10.057Z,1014.52
2016-04-22T04:21:10.060Z,1014.48
2016-04-22T04:22:10.079Z,1014.52
2016-04-22T04:23:10.096Z,1014.54
2016-04-22T04:24:10.137Z,1014.59
2016-04-22T04:25:10.195Z,1014.55
2016-04-22T04:26:10.221Z,1014.6
2016-04-22T04:27:10.263Z,1014.56
2016-04-22T04:28:10.309Z,1014.53
2016-04-22T04:29:10.342Z,1014.55
2016-04-22T04:30:10.344Z,1014.6
2016-04-22T04:31:10.360Z,1014.59
2016-04-22T04:32:10.393Z,1014.66
2016-04-22T04:33:10.406Z,1014.61
2016-04-22T04:34:10.414Z,1014.67
2016-04-22T04:35:10.422Z,1014.62
2016-04-22T04:36:10.429Z,1014.62
2016-04-22T04:37:10.438Z,1014.65
2016-04-22T04:38:10.459Z,1014.71
2016-04-22T04:39:10.464Z,1014.69
2016-04-22T04:40:10.469Z,1014.74
2016-04-22T04:41:10.473Z,1014.73
2016-04-22T04:42:10.478Z,1014.71
2016-04-22T04:43:10.497Z,1014.78
2016-04-22T04:44:10.500Z,1014.72
2016-04-22T04:45:10.503Z,1014.75
2016-04-22T04:46:10.506Z,1014.76
2016-04-22T04:47:10.509Z,1014.77
2016-04-22T04:48:10.528Z,1014.8
2016-04-22T04:49:10.548Z,1014.77
2016-04-22T04:50:10.535Z,1014.76
2016-04-22T04:51:10.538Z,1014.75
2016-04-22T04:52:10.541Z,1014.76
2016-04-22T04:53:10.560Z,1014.75
2016-04-22T04:54:10.563Z,1014.77
2016-04-22T04:55:10.565Z,1014.76
2016-04-22T04:56:10.568Z,1014.77
2016-04-22T04:57:10.570Z,1014.79
2016-04-22T04:58:10.588Z,1014.75
2016-04-22T04:59:10.591Z,1014.76
2016-04-22T05:00:10.593Z,1014.8
2016-04-22T05:01:10.596Z,1014.81
2016-04-22T05:02:10.615Z,1014.81
2016-04-22T05:03:10.617Z,1014.83
2016-04-22T05:04:10.620Z,1014.84
2016-04-22T05:05:10.623Z,1014.85
2016-04-22T05:06:10.626Z,1014.86
2016-04-22T05:07:10.629Z,1014.88
2016-04-22T05:08:10.646Z,1014.83
2016-04-22T05:09:10.649Z,1014.82
2016-04-22T05:10:10.652Z,1014.84
2016-04-22T05:11:10.655Z,1014.8
2016-04-22T05:12:10.674Z,1014.79
2016-04-22T05:13:10.660Z,1014.79
2016-04-22T05:14:10.679Z,1014.79
2016-04-22T05:15:10.682Z,1014.77
2016-04-22T05:16:10.685Z,1014.78
2016-04-22T05:17:10.687Z,1014.76
2016-04-22T05:18:10.706Z,1014.78
2016-04-22T05:19:10.709Z,1014.8
2016-04-22T05:20:10.712Z,1014.82
2016-04-22T05:21:10.714Z,1014.87
2016-04-22T05:22:10.717Z,1014.83
2016-04-22T05:23:10.735Z,1014.85
2016-04-22T05:24:10.737Z,1014.87
2016-04-22T05:25:10.740Z,1014.85
2016-04-22T05:26:10.758Z,1014.86
2016-04-22T05:27:10.745Z,1014.88
2016-04-22T05:28:10.764Z,1014.89
2016-04-22T05:29:10.767Z,1014.94
2016-04-22T05:30:10.769Z,1014.89
2016-04-22T05:31:10.772Z,1014.88
2016-04-22T05:32:10.775Z,1014.87
2016-04-22T05:33:10.777Z,1014.84
2016-04-22T05:34:10.796Z,1014.86
2016-04-22T05:35:10.799Z,1014.85
2016-04-22T05:36:10.801Z,1014.83
2016-04-22T05:37:10.804Z,1014.82
2016-04-22T05:38:10.822Z,1014.83
2016-04-22T05:39:10.825Z,1014.82
2016-04-22T05:40:10.828Z,1014.8
2016-04-22T05:41:10.829Z,1014.85
2016-04-22T05:42:10.833Z,1014.84
2016-04-22T05:43:10.835Z,1014.89
2016-04-22T05:44:10.854Z,1014.9
2016-04-22T05:45:10.857Z,1014.96
2016-04-22T05:46:10.859Z,1014.94
2016-04-22T05:47:10.862Z,1014.96
2016-04-22T05:48:10.880Z,1014.93
2016-04-22T05:49:10.882Z,1014.91
2016-04-22T05:50:10.901Z,1014.98
2016-04-22T05:51:10.887Z,1014.92
2016-04-22T05:52:10.890Z,1014.92
2016-04-22T05:53:10.909Z,1014.86
2016-04-22T05:54:10.927Z,1014.85
2016-04-22T05:55:10.930Z,1014.89
2016-04-22T05:56:10.933Z,1014.88
2016-04-22T05:57:10.920Z,1014.85
2016-04-22T05:58:10.938Z,1014.87
2016-04-22T05:59:10.942Z,1014.9
2016-04-22T06:00:10.944Z,1014.92
2016-04-22T06:01:10.947Z,1014.9
2016-04-22T06:02:10.949Z,1014.95
2016-04-22T06:03:10.967Z,1014.94
2016-04-22T06:04:10.970Z,1014.98
2016-04-22T06:05:10.973Z,1014.96
2016-04-22T06:06:10.975Z,1014.97
2016-04-22T06:07:10.978Z,1014.96
2016-04-22T06:08:10.997Z,1014.98
2016-04-22T06:09:11.000Z,1015.03
2016-04-22T06:10:11.001Z,1015.02
2016-04-22T06:11:11.020Z,1015.04
2016-04-22T06:12:11.007Z,1015.04
2016-04-22T06:13:11.026Z,1015.07
2016-04-22T06:14:11.028Z,1015.06
2016-04-22T06:15:11.032Z,1015.09
2016-04-22T06:16:11.033Z,1015.07
2016-04-22T06:17:11.051Z,1015.13
2016-04-22T06:18:11.054Z,1015.11
2016-04-22T06:19:11.057Z,1015.22
2016-04-22T06:20:11.059Z,1015.29
2016-04-22T06:21:11.062Z,1015.3
2016-04-22T06:22:11.081Z,1015.39
2016-04-22T06:23:11.083Z,1015.34
2016-04-22T06:24:11.086Z,1015.49
2016-04-22T06:25:11.089Z,1015.64
2016-04-22T06:26:11.107Z,1015.55
2016-04-22T06:27:11.110Z,1015.55
2016-04-22T06:28:11.112Z,1015.66
2016-04-22T06:29:11.115Z,1015.78
2016-04-22T06:30:11.133Z,1015.94
2016-04-22T06:31:11.153Z,1016.01
2016-04-22T06:32:11.155Z,1016.22
2016-04-22T06:33:11.158Z,1016.34
2016-04-22T06:34:11.161Z,1016.29
2016-04-22T06:35:11.163Z,1016.3
2016-04-22T06:36:11.181Z,1016.39
2016-04-22T06:37:11.184Z,1016.36
2016-04-22T06:38:11.202Z,1016.45
2016-04-22T06:39:11.189Z,1016.17
2016-04-22T06:40:11.207Z,1016.1
2016-04-22T06:41:11.585Z,1016.02
2016-04-22T06:42:11.229Z,1015.8
2016-04-22T06:43:11.231Z,1015.73
2016-04-22T06:44:11.234Z,1015.69
2016-04-22T06:45:11.237Z,1015.36
2016-04-22T06:46:11.271Z,1015.8
2016-04-22T06:47:11.257Z,1015.4
2016-04-22T06:48:11.276Z,1015.21
2016-04-22T06:49:11.279Z,1015.41
2016-04-22T06:50:11.282Z,1015.22
2016-04-22T06:51:11.299Z,1016.68
2016-04-22T06:52:11.302Z,1015.72
2016-04-22T06:53:11.304Z,1016.52
2016-04-22T06:54:11.324Z,1015.86
2016-04-22T06:55:11.325Z,1016.43
2016-04-22T06:56:11.328Z,1016.27
2016-04-22T06:57:11.347Z,1016.15
2016-04-22T06:58:11.350Z,1016.36
2016-04-22T06:59:11.353Z,1016.33
2016-04-22T07:00:11.371Z,1016.6
2016-04-22T07:01:11.373Z,1016.65
2016-04-22T07:02:11.391Z,1016.65
2016-04-22T07:03:11.394Z,1016.7
2016-04-22T07:04:11.397Z,1016.71
2016-04-22T07:05:11.416Z,1016.66
2016-04-22T07:06:11.418Z,1016.71
2016-04-22T07:07:11.436Z,1016.65
2016-04-22T07:08:11.439Z,1016.34
2016-04-22T07:09:11.441Z,1015.6
2016-04-22T07:10:11.460Z,1015.09
2016-04-22T07:11:11.463Z,1015.08
2016-04-22T07:12:11.481Z,1015.09
2016-04-22T07:13:11.484Z,1015.12
2016-04-22T07:14:11.486Z,1015.03
2016-04-22T07:15:11.552Z,1015.05
2016-04-22T07:16:11.507Z,1014.99
2016-04-22T07:17:11.526Z,1014.98
2016-04-22T07:18:11.529Z,1014.97
2016-04-22T07:19:11.531Z,1015
2016-04-22T07:20:11.534Z,1014.94
2016-04-22T07:21:11.849Z,1014.98
2016-04-22T07:22:11.554Z,1014.95
2016-04-22T07:23:11.557Z,1014.93
2016-04-22T07:24:11.576Z,1014.98
2016-04-22T07:25:11.578Z,1015
2016-04-22T07:26:11.581Z,1015
2016-04-22T07:27:11.584Z,1015
2016-04-22T07:28:11.602Z,1014.94
2016-04-22T07:29:11.605Z,1014.9
2016-04-22T07:30:11.608Z,1014.89
2016-04-22T07:31:11.626Z,1014.96
2016-04-22T07:32:11.629Z,1014.97
2016-04-22T07:33:11.631Z,1014.99
2016-04-22T07:34:11.633Z,1014.93
2016-04-22T07:35:11.856Z,1014.92
2016-04-22T07:36:11.655Z,1014.91
2016-04-22T07:37:11.658Z,1014.95
2016-04-22T07:38:11.661Z,1014.93
2016-04-22T07:39:11.678Z,1014.92
2016-04-22T07:40:11.681Z,1014.91
2016-04-22T07:41:11.684Z,1014.89
2016-04-22T07:42:11.702Z,1014.89
2016-04-22T07:43:11.705Z,1014.86
2016-04-22T07:44:11.708Z,1014.88
2016-04-22T07:45:11.773Z,1014.88
2016-04-22T07:46:11.713Z,1014.89
2016-04-22T07:47:11.732Z,1014.91
2016-04-22T07:48:11.734Z,1014.9
2016-04-22T07:49:11.737Z,1014.91
2016-04-22T07:50:11.896Z,1014.9
2016-04-22T07:51:11.757Z,1014.92
2016-04-22T07:52:11.760Z,1014.98
2016-04-22T07:53:11.763Z,1014.97
2016-04-22T07:54:11.765Z,1014.92
2016-04-22T07:55:12.331Z,1014.98
2016-04-22T07:56:11.787Z,1014.93
2016-04-22T07:57:11.790Z,1014.93
2016-04-22T07:58:11.809Z,1014.9
2016-04-22T07:59:11.921Z,1014.88
2016-04-22T08:00:11.876Z,1014.91
2016-04-22T08:01:11.817Z,1014.89
2016-04-22T08:02:11.834Z,1014.83
2016-04-22T08:03:11.836Z,1014.85
2016-04-22T08:04:11.840Z,1014.89
2016-04-22T08:05:11.859Z,1014.85
2016-04-22T08:06:11.860Z,1014.84
2016-04-22T08:07:11.864Z,1014.87
2016-04-22T08:08:11.866Z,1014.84
2016-04-22T08:09:11.884Z,1014.81
2016-04-22T08:10:11.887Z,1014.8
2016-04-22T08:11:11.889Z,1014.84
2016-04-22T08:12:11.908Z,1014.84
2016-04-22T08:13:11.911Z,1014.85
2016-04-22T08:14:11.913Z,1014.88
2016-04-22T08:15:11.916Z,1014.85
2016-04-22T08:16:11.935Z,1014.86
2016-04-22T08:17:11.937Z,1014.89
2016-04-22T08:18:11.940Z,1014.95
2016-04-22T08:19:11.958Z,1014.9
2016-04-22T08:20:11.961Z,1014.91
2016-04-22T08:21:11.963Z,1014.89
2016-04-22T08:22:11.982Z,1014.89
2016-04-22T08:23:11.985Z,1014.88
2016-04-22T08:24:11.987Z,1014.88
2016-04-22T08:25:11.990Z,1014.84
2016-04-22T08:26:12.009Z,1014.88
2016-04-22T08:27:12.026Z,1014.85
2016-04-22T08:28:12.014Z,1014.86
2016-04-22T08:29:12.032Z,1014.89
2016-04-22T08:30:12.034Z,1014.85
2016-04-22T08:31:12.037Z,1014.84
2016-04-22T08:32:12.056Z,1014.81
2016-04-22T08:33:12.058Z,1014.8
2016-04-22T08:34:12.061Z,1014.85
2016-04-22T08:35:12.079Z,1014.83
2016-04-22T08:36:12.081Z,1014.82
2016-04-22T08:37:12.085Z,1014.83
2016-04-22T08:38:12.087Z,1014.83
2016-04-22T08:39:12.152Z,1014.79
2016-04-22T08:40:12.108Z,1014.8
2016-04-22T08:41:12.111Z,1014.77
2016-04-22T08:42:12.130Z,1014.79
2016-04-22T08:43:12.133Z,1014.72
2016-04-22T08:44:12.150Z,1014.71
2016-04-22T08:45:12.153Z,1014.68
2016-04-22T08:46:12.156Z,1014.69
2016-04-22T08:47:12.158Z,1014.71
2016-04-22T08:48:12.177Z,1014.7
2016-04-22T08:49:12.180Z,1014.7
2016-04-22T08:50:12.198Z,1014.77
2016-04-22T08:51:12.201Z,1014.72
2016-04-22T08:52:12.203Z,1014.7
2016-04-22T08:53:12.207Z,1014.75
2016-04-22T08:54:12.209Z,1014.72
2016-04-22T08:55:12.743Z,1014.69
2016-04-22T08:56:12.230Z,1014.69
2016-04-22T08:57:12.232Z,1014.67
2016-04-22T08:58:12.250Z,1014.68
2016-04-22T08:59:12.253Z,1014.68
2016-04-22T09:00:12.366Z,1014.68
2016-04-22T09:01:12.274Z,1014.66
2016-04-22T09:02:12.277Z,1014.65
2016-04-22T09:03:12.279Z,1014.67
2016-04-22T09:04:12.282Z,1014.67
2016-04-22T09:05:12.317Z,1014.63
2016-04-22T09:06:12.303Z,1014.65
2016-04-22T09:07:12.322Z,1014.69
2016-04-22T09:08:12.325Z,1014.71
2016-04-22T09:09:12.328Z,1014.68
2016-04-22T09:10:12.330Z,1014.75
2016-04-22T09:11:12.348Z,1014.68
2016-04-22T09:12:12.350Z,1014.65
2016-04-22T09:13:12.353Z,1014.66
2016-04-22T09:14:12.371Z,1014.68
2016-04-22T09:15:12.749Z,1014.66
2016-04-22T09:16:12.378Z,1014.72
2016-04-22T09:17:12.396Z,1014.69
2016-04-22T09:18:12.399Z,1014.65
2016-04-22T09:19:12.401Z,1014.63
2016-04-22T09:20:12.575Z,1014.65
2016-04-22T09:21:12.422Z,1014.57
2016-04-22T09:22:12.424Z,1014.6
2016-04-22T09:23:12.434Z,1014.62
2016-04-22T09:24:12.453Z,1014.6
2016-04-22T09:25:12.455Z,1014.59
2016-04-22T09:26:12.458Z,1014.58
2016-04-22T09:27:12.461Z,1014.58
2016-04-22T09:28:12.478Z,1014.58
2016-04-22T09:29:12.482Z,1014.54
2016-04-22T09:30:13.547Z,1014.51
2016-04-22T09:31:12.502Z,1014.49
2016-04-22T09:32:12.506Z,1014.43
2016-04-22T09:33:12.508Z,1014.41
2016-04-22T09:34:12.526Z,1014.44
2016-04-22T09:35:13.467Z,1014.47
2016-04-22T09:36:12.533Z,1014.45
2016-04-22T09:37:12.550Z,1014.46
2016-04-22T09:38:12.554Z,1014.47
2016-04-22T09:39:12.556Z,1014.5
2016-04-22T09:40:13.497Z,1014.48
2016-04-22T09:41:12.577Z,1014.48
2016-04-22T09:42:12.580Z,1014.45
2016-04-22T09:43:12.598Z,1014.42
2016-04-22T09:44:12.600Z,1014.41
2016-04-22T09:45:12.603Z,1014.42
2016-04-22T09:46:12.606Z,1014.43
2016-04-22T09:47:12.625Z,1014.39
2016-04-22T09:48:12.628Z,1014.36
2016-04-22T09:49:12.630Z,1014.36
2016-04-22T09:50:12.649Z,1014.32
2016-04-22T09:51:12.651Z,1014.3
2016-04-22T09:52:12.654Z,1014.3
2016-04-22T09:53:12.671Z,1014.24
2016-04-22T09:54:12.674Z,1014.34
2016-04-22T09:55:12.677Z,1014.31
2016-04-22T09:56:12.696Z,1014.27
2016-04-22T09:57:12.715Z,1014.28
2016-04-22T09:58:12.717Z,1014.21
2016-04-22T09:59:12.720Z,1014.25
2016-04-22T10:00:13.003Z,1014.23
2016-04-22T10:01:12.725Z,1014.26
2016-04-22T10:02:12.743Z,1014.25
2016-04-22T10:03:12.745Z,1014.25
2016-04-22T10:04:12.749Z,1014.26
2016-04-22T10:05:14.406Z,1014.21
2016-04-22T10:06:12.770Z,1014.26
2016-04-22T10:07:12.772Z,1014.24
2016-04-22T10:13:32.712Z,1014.23
2016-04-22T10:14:32.730Z,1014.18
2016-04-22T10:15:32.733Z,1014.15
2016-04-22T10:16:32.752Z,1014.15
2016-04-22T10:17:32.754Z,1014.08
2016-04-22T10:18:32.757Z,1014.08
2016-04-22T10:19:32.760Z,1014.09
2016-04-22T10:20:32.779Z,1014.07
2016-04-22T10:21:32.781Z,1014
2016-04-22T10:22:32.784Z,1014.05
2016-04-22T10:23:32.801Z,1014.04
2016-04-22T10:24:32.804Z,1014.04
2016-04-22T10:25:32.807Z,1014.05
2016-04-22T10:26:32.840Z,1013.99
2016-04-22T10:27:32.828Z,1013.94
2016-04-22T10:28:32.831Z,1013.9
2016-04-22T10:29:32.849Z,1013.9
2016-04-22T10:30:32.851Z,1013.86
2016-04-22T10:31:32.854Z,1013.85
2016-04-22T10:32:32.873Z,1013.84
2016-04-22T10:33:32.876Z,1013.86
2016-04-22T10:34:32.879Z,1013.81
2016-04-22T10:35:32.897Z,1013.8
2016-04-22T10:36:32.899Z,1013.81
2016-04-22T10:37:32.902Z,1013.82
2016-04-22T10:38:32.920Z,1013.81
2016-04-22T10:39:32.923Z,1013.8
2016-04-22T10:40:32.925Z,1013.8
2016-04-22T10:41:32.944Z,1013.82
2016-04-22T10:42:32.947Z,1013.8
2016-04-22T10:43:32.950Z,1013.74
2016-04-22T10:44:32.968Z,1013.77
2016-04-22T10:45:32.971Z,1013.74
2016-04-22T10:46:32.973Z,1013.7
2016-04-22T10:47:32.991Z,1013.69
2016-04-22T10:48:32.994Z,1013.63
2016-04-22T10:49:32.996Z,1013.57
2016-04-22T10:50:33.015Z,1013.6
2016-04-22T10:51:33.017Z,1013.6
2016-04-22T10:52:33.020Z,1013.51
2016-04-22T10:53:33.038Z,1013.54
2016-04-22T10:54:33.057Z,1013.54
2016-04-22T10:55:33.043Z,1013.51
2016-04-22T10:56:33.046Z,1013.5
2016-04-22T10:57:33.174Z,1013.5
2016-04-22T10:58:33.067Z,1013.54
2016-04-22T10:59:33.086Z,1013.53
2016-04-22T11:00:33.089Z,1013.49
2016-04-22T11:01:33.107Z,1013.48
2016-04-22T11:02:33.109Z,1013.44
2016-04-22T11:03:33.112Z,1013.43
2016-04-22T11:04:33.114Z,1013.46
2016-04-22T11:05:33.134Z,1013.47
2016-04-22T11:06:33.137Z,1013.44
2016-04-22T11:07:33.139Z,1013.43
2016-04-22T11:08:33.157Z,1013.41
2016-04-22T11:09:33.160Z,1013.39
2016-04-22T11:10:33.163Z,1013.39
2016-04-22T11:11:33.180Z,1013.38
2016-04-22T11:12:33.183Z,1013.4
2016-04-22T11:13:33.186Z,1013.39
2016-04-22T11:14:33.189Z,1013.37
2016-04-22T11:15:33.207Z,1013.39
2016-04-22T11:16:33.210Z,1013.33
2016-04-22T11:17:33.227Z,1013.34
2016-04-22T11:18:33.230Z,1013.3
2016-04-22T11:19:33.233Z,1013.31
2016-04-22T11:20:33.252Z,1013.26
2016-04-22T11:21:33.254Z,1013.27
2016-04-22T11:22:33.320Z,1013.25
2016-04-22T11:23:33.251Z,1013.25
2016-04-22T11:24:33.270Z,1013.26
2016-04-22T11:25:33.272Z,1013.2
2016-04-22T11:26:33.275Z,1013.17
2016-04-22T11:27:33.293Z,1013.12
2016-04-22T11:28:33.296Z,1013.1
2016-04-22T11:29:33.298Z,1013.07
2016-04-22T11:30:33.317Z,1013.03
2016-04-22T11:31:33.320Z,1013.1
2016-04-22T11:32:33.323Z,1013.1
2016-04-22T11:33:33.356Z,1013.1
2016-04-22T11:34:33.343Z,1013.09
2016-04-22T11:35:33.343Z,1013.11
2016-04-22T11:36:33.347Z,1013.11
2016-04-22T11:37:33.364Z,1013.06
2016-04-22T11:38:33.366Z,1013.1
2016-04-22T11:39:33.385Z,1013.1
2016-04-22T11:40:33.388Z,1013.13
2016-04-22T11:41:33.391Z,1013.07
2016-04-22T11:42:33.409Z,1013.05
2016-04-22T11:43:33.412Z,1013.05
2016-04-22T11:44:33.415Z,1013.06
2016-04-22T11:45:33.433Z,1013.02
2016-04-22T11:46:33.435Z,1013.03
2016-04-22T11:47:33.437Z,1012.99
2016-04-22T11:48:33.456Z,1012.95
2016-04-22T11:49:33.459Z,1012.92
2016-04-22T11:50:33.462Z,1012.96
2016-04-22T11:51:33.464Z,1012.96
2016-04-22T11:52:33.482Z,1013.03
2016-04-22T11:53:33.485Z,1013.03
2016-04-22T11:54:33.488Z,1012.99
2016-04-22T11:55:33.506Z,1012.97
2016-04-22T11:56:33.509Z,1012.98
2016-04-22T11:57:33.527Z,1013
2016-04-22T11:58:33.531Z,1012.99
2016-04-22T11:59:33.548Z,1012.97
2016-04-22T12:00:33.551Z,1012.97
2016-04-22T12:01:33.554Z,1013
2016-04-22T12:02:33.556Z,1012.99
2016-04-22T12:03:33.559Z,1012.96
2016-04-22T12:04:33.562Z,1012.9
2016-04-22T12:05:33.580Z,1012.91
2016-04-22T12:06:33.583Z,1012.84
2016-04-22T12:07:33.586Z,1012.86
2016-04-22T12:08:33.604Z,1012.88
2016-04-22T12:09:33.607Z,1012.89
2016-04-22T12:10:33.610Z,1012.83
2016-04-22T12:11:33.612Z,1012.85
2016-04-22T12:12:33.630Z,1012.87
2016-04-22T12:13:33.632Z,1012.85